Time;durP1;ratioP1;P1;durP2;ratioP2;P2;SDS_P1;SDS_P2;PMS_P1;PMS_P2;Temp;Humidity;BMP_temperature;BMP_pressure;BME280_temperature;BME280_humidity;BME280_pressure;Samples;Min_cycle;Max_cycle;Signal;HPM_P1;HPM_P2
2022/03/11 00:01:50;;;;;;;15.38;8.40;;;7.20;17.90;;;;;;5009261;28;25065;-73
2022/03/11 00:04:15;;;;;;;15.15;7.45;;;7.10;18.10;;;;;;5007290;28;25107;-72
2022/03/11 00:06:41;;;;;;;17.33;7.97;;;7.10;18.00;;;;;;5008611;28;25110;-73
2022/03/11 00:09:06;;;;;;;14.52;8.07;;;7.10;18.00;;;;;;5007974;28;25076;-73
2022/03/11 00:11:32;;;;;;;19.15;8.25;;;7.10;18.30;;;;;;5008294;28;25083;-73
2022/03/11 00:13:58;;;;;;;13.20;7.45;;;7.00;18.40;;;;;;5007831;28;25074;-74
2022/03/11 00:16:23;;;;;;;11.10;7.80;;;7.00;18.20;;;;;;5009068;28;25136;-75
2022/03/11 00:18:50;;;;;;;12.93;7.40;;;7.00;18.20;;;;;;5008536;28;25095;-74
2022/03/11 00:21:15;;;;;;;15.50;8.10;;;7.00;18.50;;;;;;5007262;28;25076;-75
2022/03/11 00:23:42;;;;;;;12.00;7.95;;;7.00;18.30;;;;;;5006599;28;25101;-74
2022/03/11 00:26:08;;;;;;;14.10;7.90;;;7.00;18.30;;;;;;5008236;28;25070;-74
2022/03/11 00:28:33;;;;;;;12.25;7.55;;;7.00;18.30;;;;;;5008379;28;25053;-75
2022/03/11 00:31:00;;;;;;;13.30;7.90;;;6.90;18.50;;;;;;5008197;28;25071;-72
2022/03/11 00:33:25;;;;;;;19.75;8.57;;;6.90;18.70;;;;;;5006895;28;25167;-72
2022/03/11 00:35:51;;;;;;;15.25;9.02;;;6.90;18.70;;;;;;5006754;28;25133;-73
2022/03/11 00:38:17;;;;;;;18.27;8.05;;;6.80;18.60;;;;;;5006242;28;25059;-73
2022/03/11 00:40:42;;;;;;;13.75;8.00;;;6.80;18.70;;;;;;5006885;28;25106;-74
2022/03/11 00:43:08;;;;;;;14.32;8.48;;;6.80;18.80;;;;;;5007022;28;25161;-72
2022/03/11 00:45:33;;;;;;;15.88;8.50;;;6.80;19.10;;;;;;5007934;28;25062;-74
2022/03/11 00:47:59;;;;;;;13.88;8.45;;;6.70;19.40;;;;;;5015309;28;25057;-73
2022/03/11 00:50:25;;;;;;;13.80;9.25;;;6.70;19.90;;;;;;5013768;28;25058;-74
2022/03/11 00:52:51;;;;;;;14.10;8.85;;;6.70;19.80;;;;;;5007493;28;25076;-72
2022/03/11 00:55:17;;;;;;;16.52;8.65;;;6.60;20.30;;;;;;4989794;28;25163;-73
2022/03/11 00:57:42;;;;;;;12.57;8.55;;;6.60;20.00;;;;;;5006577;28;25071;-73
2022/03/11 01:00:09;;;;;;;14.07;8.40;;;6.60;20.10;;;;;;4997122;28;25045;-74
2022/03/11 01:02:36;;;;;;;17.48;9.18;;;6.60;20.20;;;;;;5002250;28;25055;-73
2022/03/11 01:05:06;;;;;;;15.50;8.68;;;6.60;20.30;;;;;;5005595;28;25054;-72
2022/03/11 01:07:32;;;;;;;13.57;8.52;;;6.50;20.60;;;;;;5006008;28;25066;-73
2022/03/11 01:09:58;;;;;;;13.57;8.65;;;6.50;20.80;;;;;;5002148;28;25052;-72
2022/03/11 01:12:23;;;;;;;14.93;8.93;;;6.40;21.20;;;;;;5004632;28;25068;-73
2022/03/11 01:14:49;;;;;;;15.25;9.00;;;6.40;21.00;;;;;;5006315;28;25070;-73
2022/03/11 01:17:15;;;;;;;13.43;9.00;;;6.30;21.40;;;;;;5010435;28;25154;-73
2022/03/11 01:19:40;;;;;;;14.02;8.65;;;6.30;21.60;;;;;;5010170;28;25055;-74
2022/03/11 01:22:06;;;;;;;15.57;8.88;;;6.30;22.00;;;;;;5010718;28;25084;-73
2022/03/11 01:24:32;;;;;;;14.52;8.68;;;6.30;21.90;;;;;;5010456;28;25097;-72
2022/03/11 01:26:57;;;;;;;13.20;8.38;;;6.20;21.80;;;;;;4993065;28;25070;-74
2022/03/11 01:29:23;;;;;;;18.15;9.55;;;6.20;21.90;;;;;;5002571;28;25074;-73
2022/03/11 01:31:50;;;;;;;22.73;9.43;;;6.20;22.00;;;;;;5010272;28;25051;-74
2022/03/11 01:34:16;;;;;;;17.73;8.73;;;6.20;22.10;;;;;;5009940;28;25059;-73
2022/03/11 01:36:42;;;;;;;18.60;9.60;;;6.20;22.10;;;;;;5004305;28;25086;-71
2022/03/11 01:39:07;;;;;;;25.60;10.35;;;6.20;22.00;;;;;;5009874;28;25069;-73
2022/03/11 01:41:33;;;;;;;16.27;9.00;;;6.10;22.20;;;;;;5010574;28;25054;-73
2022/03/11 01:44:04;;;;;;;18.52;9.45;;;6.10;22.20;;;;;;5010078;28;25060;-74
2022/03/11 01:46:30;;;;;;;17.30;9.45;;;6.10;22.60;;;;;;5010156;28;25095;-74
2022/03/11 01:48:57;;;;;;;17.45;8.68;;;6.10;22.40;;;;;;5009878;28;25085;-74
2022/03/11 01:51:23;;;;;;;18.13;10.43;;;6.10;22.60;;;;;;5010579;28;25079;-76
2022/03/11 01:53:52;;;;;;;18.30;9.73;;;6.00;23.10;;;;;;5010115;28;25089;-71
2022/03/11 01:56:18;;;;;;;14.85;9.40;;;5.90;23.20;;;;;;5009772;28;25091;-74
2022/03/11 01:58:48;;;;;;;15.32;9.15;;;5.90;23.30;;;;;;5009524;28;25089;-75
2022/03/11 02:01:13;;;;;;;19.58;9.60;;;5.90;23.50;;;;;;5009550;28;25113;-75
2022/03/11 02:03:39;;;;;;;15.80;9.50;;;5.90;23.60;;;;;;5010693;28;25162;-74
2022/03/11 02:06:08;;;;;;;18.10;11.32;;;5.90;23.60;;;;;;5014262;28;25094;-75
2022/03/11 02:08:34;;;;;;;16.73;10.20;;;5.80;23.90;;;;;;5020420;28;25156;-75
2022/03/11 02:11:00;;;;;;;17.17;10.20;;;5.80;23.90;;;;;;5012225;28;25095;-72
2022/03/11 02:13:25;;;;;;;19.77;10.40;;;5.80;23.90;;;;;;5009370;28;25089;-73
2022/03/11 02:15:52;;;;;;;16.67;10.10;;;5.80;24.00;;;;;;5008987;28;25058;-73
2022/03/11 02:18:18;;;;;;;18.00;10.45;;;5.80;24.00;;;;;;4991744;28;25068;-73
2022/03/11 02:20:49;;;;;;;17.63;10.18;;;5.80;24.20;;;;;;5008623;28;25128;-74
2022/03/11 02:23:17;;;;;;;22.27;11.50;;;5.80;24.10;;;;;;5008655;28;25124;-74
2022/03/11 02:25:43;;;;;;;17.80;10.52;;;5.70;24.30;;;;;;5009020;28;25078;-73
2022/03/11 02:28:08;;;;;;;17.45;9.77;;;5.70;24.40;;;;;;5008129;28;25077;-73
2022/03/11 02:30:34;;;;;;;19.00;10.38;;;5.70;24.50;;;;;;5008990;28;25143;-73
2022/03/11 02:32:59;;;;;;;18.50;10.88;;;5.70;24.60;;;;;;5009650;28;25062;-74
2022/03/11 02:35:25;;;;;;;21.73;10.07;;;5.70;24.70;;;;;;4991797;28;25066;-73
2022/03/11 02:37:51;;;;;;;18.10;11.27;;;5.70;24.80;;;;;;5009341;28;25073;-75
2022/03/11 02:40:16;;;;;;;19.95;10.82;;;5.70;24.80;;;;;;5004311;28;25045;-73
2022/03/11 02:42:42;;;;;;;24.17;10.88;;;5.70;25.00;;;;;;4995691;28;25163;-74
2022/03/11 02:45:08;;;;;;;21.88;11.43;;;5.60;25.00;;;;;;4999725;28;25139;-73
2022/03/11 02:47:34;;;;;;;23.52;11.65;;;5.60;25.00;;;;;;5009127;28;25058;-74
2022/03/11 02:49:59;;;;;;;19.45;11.30;;;5.60;24.80;;;;;;5009648;28;25084;-74
2022/03/11 02:52:31;;;;;;;19.27;11.32;;;5.60;24.90;;;;;;4991348;28;25121;-75
2022/03/11 02:54:57;;;;;;;20.80;10.40;;;5.60;24.90;;;;;;4989386;28;25048;-75
2022/03/11 02:57:22;;;;;;;24.38;11.82;;;5.60;25.10;;;;;;4989800;28;25070;-74
2022/03/11 02:59:48;;;;;;;20.75;11.43;;;5.50;25.20;;;;;;5006018;28;25088;-74
2022/03/11 03:02:14;;;;;;;19.17;11.00;;;5.50;25.30;;;;;;4990709;28;25095;-74
2022/03/11 03:04:39;;;;;;;21.88;10.98;;;5.50;25.50;;;;;;4990954;28;25089;-74
2022/03/11 03:07:07;;;;;;;28.13;11.75;;;5.50;25.80;;;;;;5008201;28;25081;-73
2022/03/11 03:09:32;;;;;;;30.17;11.15;;;5.50;26.10;;;;;;4991088;28;25060;-74
2022/03/11 03:11:58;;;;;;;20.77;11.02;;;5.50;25.90;;;;;;5008377;28;25077;-73
2022/03/11 03:14:24;;;;;;;21.17;11.52;;;5.50;25.80;;;;;;5007427;28;25082;-73
2022/03/11 03:16:49;;;;;;;22.80;11.60;;;5.50;25.80;;;;;;5008822;28;25123;-72
2022/03/11 03:19:15;;;;;;;25.88;12.23;;;5.50;25.80;;;;;;5008010;28;25148;-73
2022/03/11 03:21:40;;;;;;;21.48;11.13;;;5.50;25.80;;;;;;4994122;28;25077;-73
2022/03/11 03:24:06;;;;;;;17.52;11.10;;;5.50;25.80;;;;;;5008612;28;25055;-74
2022/03/11 03:26:32;;;;;;;21.98;11.63;;;5.40;26.30;;;;;;5008810;28;25056;-72
2022/03/11 03:28:57;;;;;;;22.27;11.52;;;5.40;26.20;;;;;;5009258;28;25125;-73
2022/03/11 03:31:23;;;;;;;20.88;12.50;;;5.40;26.40;;;;;;5008815;28;25154;-73
2022/03/11 03:33:49;;;;;;;19.92;11.40;;;5.40;26.40;;;;;;5009086;28;25098;-72
2022/03/11 03:36:15;;;;;;;24.77;11.90;;;5.30;26.70;;;;;;5010976;28;25108;-72
2022/03/11 03:38:40;;;;;;;23.63;11.48;;;5.30;26.80;;;;;;4990306;28;25066;-74
2022/03/11 03:41:06;;;;;;;19.33;11.88;;;5.30;26.80;;;;;;4995054;28;25064;-73
2022/03/11 03:43:32;;;;;;;21.30;11.57;;;5.30;26.70;;;;;;5015450;28;25075;-73
2022/03/11 03:45:57;;;;;;;20.38;12.60;;;5.30;27.00;;;;;;5010455;28;25066;-73
2022/03/11 03:48:23;;;;;;;22.55;10.90;;;5.30;27.10;;;;;;5009267;28;25092;-74
2022/03/11 03:50:48;;;;;;;21.80;10.55;;;5.20;27.10;;;;;;5008752;28;25063;-73
2022/03/11 03:53:14;;;;;;;23.13;11.27;;;5.20;27.50;;;;;;5008773;28;25059;-74
2022/03/11 03:55:40;;;;;;;20.38;11.80;;;5.20;27.40;;;;;;5008411;28;25101;-73
2022/03/11 03:58:05;;;;;;;19.02;11.02;;;5.20;27.30;;;;;;5009161;28;25075;-73
2022/03/11 04:00:31;;;;;;;22.63;12.25;;;5.20;27.40;;;;;;5009940;28;25073;-74
2022/03/11 04:02:57;;;;;;;17.20;10.73;;;5.20;27.30;;;;;;5018582;28;25077;-75
2022/03/11 04:05:23;;;;;;;22.60;12.32;;;5.20;27.20;;;;;;5035380;28;25072;-75
2022/03/11 04:07:49;;;;;;;18.52;11.07;;;5.10;27.20;;;;;;5024405;28;25110;-72
2022/03/11 04:10:16;;;;;;;20.30;11.88;;;5.10;26.90;;;;;;5032756;28;25082;-75
2022/03/11 04:12:41;;;;;;;21.83;12.52;;;5.10;27.10;;;;;;5031037;28;25046;-75
2022/03/11 04:15:08;;;;;;;25.60;12.10;;;5.10;27.00;;;;;;5029346;28;25081;-75
2022/03/11 04:17:34;;;;;;;18.08;11.75;;;5.10;27.20;;;;;;5012618;28;25102;-74
2022/03/11 04:20:02;;;;;;;21.63;12.13;;;5.00;27.60;;;;;;5011276;28;25118;-73
2022/03/11 04:22:27;;;;;;;24.05;11.30;;;5.00;27.80;;;;;;5016074;28;25123;-75
2022/03/11 04:24:53;;;;;;;21.92;11.93;;;5.00;28.10;;;;;;5009569;28;25112;-73
2022/03/11 04:27:19;;;;;;;22.88;11.90;;;4.90;28.70;;;;;;4989191;28;25111;-74
2022/03/11 04:29:44;;;;;;;18.02;12.23;;;4.90;28.70;;;;;;4988702;28;25098;-73
2022/03/11 04:32:10;;;;;;;18.45;11.60;;;4.80;28.80;;;;;;4994156;28;25061;-71
2022/03/11 04:34:35;;;;;;;21.45;11.30;;;4.80;28.90;;;;;;5009348;28;25070;-73
2022/03/11 04:37:01;;;;;;;19.77;11.32;;;4.90;29.10;;;;;;5007942;28;25078;-74
2022/03/11 04:39:27;;;;;;;24.45;12.43;;;4.80;29.00;;;;;;5007280;28;25073;-72
2022/03/11 04:41:53;;;;;;;25.70;12.52;;;4.70;29.40;;;;;;5020071;28;25105;-72
2022/03/11 04:44:19;;;;;;;19.92;12.18;;;4.80;29.60;;;;;;5002678;28;25100;-73
2022/03/11 04:46:46;;;;;;;21.90;11.05;;;4.70;29.70;;;;;;5020599;28;25082;-74
2022/03/11 04:49:11;;;;;;;19.02;11.15;;;4.70;29.60;;;;;;5022561;28;25099;-72
2022/03/11 04:51:38;;;;;;;22.75;11.75;;;4.70;29.50;;;;;;5025494;28;25071;-73
2022/03/11 04:54:04;;;;;;;18.15;11.65;;;4.70;29.70;;;;;;5026400;28;25050;-74
2022/03/11 04:56:31;;;;;;;21.77;11.55;;;4.60;29.90;;;;;;5017497;28;25059;-74
2022/03/11 04:58:56;;;;;;;19.90;11.52;;;4.60;30.10;;;;;;5013186;28;25053;-74
2022/03/11 05:01:22;;;;;;;23.27;11.45;;;4.60;30.30;;;;;;4993024;28;25054;-72
2022/03/11 05:03:47;;;;;;;18.40;10.88;;;4.60;30.10;;;;;;5010535;28;25157;-74
2022/03/11 05:06:13;;;;;;;18.73;10.60;;;4.60;30.00;;;;;;5011825;28;25086;-74
2022/03/11 05:08:38;;;;;;;19.27;10.98;;;4.60;29.90;;;;;;5010758;28;25070;-74
2022/03/11 05:11:04;;;;;;;17.85;10.65;;;4.60;29.80;;;;;;5011457;28;25061;-74
2022/03/11 05:13:30;;;;;;;19.67;11.10;;;4.60;29.80;;;;;;5010292;28;25059;-73
2022/03/11 05:15:56;;;;;;;18.85;11.32;;;4.60;29.70;;;;;;5010791;28;25085;-74
2022/03/11 05:18:21;;;;;;;21.92;11.32;;;4.60;29.50;;;;;;5009665;28;25101;-74
2022/03/11 05:20:47;;;;;;;18.45;10.73;;;4.60;29.50;;;;;;5009650;28;25082;-74
2022/03/11 05:23:13;;;;;;;22.27;10.43;;;4.60;29.60;;;;;;5010291;28;25146;-73
2022/03/11 05:25:38;;;;;;;20.13;10.35;;;4.60;29.30;;;;;;5010005;28;25069;-73
2022/03/11 05:28:04;;;;;;;20.77;10.95;;;4.60;29.20;;;;;;4991220;28;25085;-73
2022/03/11 05:30:30;;;;;;;20.48;10.40;;;4.60;29.10;;;;;;5008982;28;25082;-75
2022/03/11 05:32:56;;;;;;;21.60;11.02;;;4.60;29.20;;;;;;5009892;28;25095;-74
2022/03/11 05:35:21;;;;;;;18.42;10.85;;;4.60;29.30;;;;;;5009921;28;25099;-74
2022/03/11 05:37:47;;;;;;;19.15;11.48;;;4.60;29.30;;;;;;5010590;28;25073;-73
2022/03/11 05:40:13;;;;;;;21.15;10.25;;;4.60;29.30;;;;;;5010645;28;25076;-75
2022/03/11 05:42:40;;;;;;;19.55;11.48;;;4.60;29.20;;;;;;5006304;28;25066;-75
2022/03/11 05:45:07;;;;;;;20.95;11.35;;;4.60;29.40;;;;;;5010571;28;25052;-74
2022/03/11 05:47:33;;;;;;;19.92;11.23;;;4.60;29.60;;;;;;5010199;28;25051;-72
2022/03/11 05:49:59;;;;;;;19.77;10.77;;;4.50;29.70;;;;;;5010861;28;25179;-72
2022/03/11 05:52:24;;;;;;;18.63;10.35;;;4.60;29.50;;;;;;5010056;28;25073;-72
2022/03/11 05:54:51;;;;;;;20.40;10.40;;;4.60;29.50;;;;;;5009670;28;25064;-72
2022/03/11 05:57:17;;;;;;;17.00;10.20;;;4.60;29.50;;;;;;5009948;28;25125;-72
2022/03/11 05:59:43;;;;;;;16.20;9.98;;;4.60;29.80;;;;;;4992376;28;25054;-73
2022/03/11 06:02:08;;;;;;;19.85;10.35;;;4.60;29.70;;;;;;4990465;28;25172;-72
2022/03/11 06:04:34;;;;;;;16.52;10.38;;;4.50;29.60;;;;;;4991726;28;25143;-72
2022/03/11 06:07:00;;;;;;;18.77;10.13;;;4.50;29.70;;;;;;5009648;28;25060;-73
2022/03/11 06:09:25;;;;;;;19.50;11.13;;;4.60;29.20;;;;;;5007586;28;25073;-73
2022/03/11 06:11:53;;;;;;;15.40;9.18;;;4.60;28.90;;;;;;5017230;28;25089;-74
2022/03/11 06:14:18;;;;;;;16.80;10.27;;;4.60;28.90;;;;;;5034733;28;25079;-75
2022/03/11 06:16:44;;;;;;;22.30;9.73;;;4.60;29.00;;;;;;5013137;28;25072;-72
2022/03/11 06:19:09;;;;;;;17.60;9.93;;;4.70;29.10;;;;;;5001493;28;25066;-74
2022/03/11 06:21:35;;;;;;;15.13;9.18;;;4.60;29.40;;;;;;5007995;28;25127;-73
2022/03/11 06:24:01;;;;;;;15.80;10.32;;;4.60;29.30;;;;;;4989306;28;25077;-73
2022/03/11 06:26:26;;;;;;;16.83;8.93;;;4.70;29.10;;;;;;4999803;28;25064;-72
2022/03/11 06:28:52;;;;;;;17.73;9.65;;;4.70;28.80;;;;;;5001282;28;25073;-72
2022/03/11 06:31:18;;;;;;;17.95;9.40;;;4.70;29.00;;;;;;5001639;28;25057;-73
2022/03/11 06:33:43;;;;;;;16.17;9.05;;;4.70;28.80;;;;;;5003357;28;25081;-73
2022/03/11 06:36:09;;;;;;;16.45;9.52;;;4.80;28.40;;;;;;4998984;28;25069;-73
2022/03/11 06:38:34;;;;;;;15.57;10.05;;;4.80;27.90;;;;;;5005026;28;25076;-72
2022/03/11 06:41:00;;;;;;;13.23;9.40;;;4.90;27.70;;;;;;5003994;28;25139;-74
2022/03/11 06:43:25;;;;;;;16.45;9.85;;;5.00;27.50;;;;;;5002608;28;25051;-72
2022/03/11 06:45:51;;;;;;;14.75;9.45;;;5.00;27.20;;;;;;5002127;28;25138;-73
2022/03/11 06:48:21;;;;;;;17.20;9.05;;;5.00;26.90;;;;;;4992027;28;25052;-73
2022/03/11 06:50:50;;;;;;;17.15;10.45;;;5.10;26.70;;;;;;4991850;28;25054;-71
2022/03/11 06:53:16;;;;;;;16.35;8.57;;;5.10;26.70;;;;;;5009827;28;25054;-72
2022/03/11 06:55:42;;;;;;;14.32;8.93;;;5.10;27.00;;;;;;5009647;28;25071;-73
2022/03/11 06:58:07;;;;;;;16.63;9.13;;;5.20;26.90;;;;;;5009316;28;25120;-74
2022/03/11 07:00:33;;;;;;;16.52;8.70;;;5.20;26.90;;;;;;5010583;28;25061;-73
2022/03/11 07:02:58;;;;;;;15.98;9.10;;;5.30;26.60;;;;;;5010800;28;25085;-73
2022/03/11 07:05:25;;;;;;;16.67;8.98;;;5.30;26.70;;;;;;5010515;28;25149;-75
2022/03/11 07:07:51;;;;;;;14.68;8.27;;;5.40;26.30;;;;;;5009715;28;25184;-72
2022/03/11 07:10:16;;;;;;;16.55;8.93;;;5.50;26.10;;;;;;4979128;28;25095;-73
2022/03/11 07:12:43;;;;;;;16.45;8.35;;;5.50;26.20;;;;;;5000482;28;25080;-73
2022/03/11 07:15:09;;;;;;;17.08;8.98;;;5.60;25.70;;;;;;4997403;28;25078;-73
2022/03/11 07:17:35;;;;;;;14.40;9.40;;;5.70;25.20;;;;;;4995481;28;25451;-72
2022/03/11 07:20:03;;;;;;;13.98;8.07;;;5.70;25.20;;;;;;4998584;28;25080;-74
2022/03/11 07:22:29;;;;;;;17.13;9.35;;;5.80;24.90;;;;;;5005134;28;25050;-72
2022/03/11 07:24:55;;;;;;;13.63;8.60;;;6.00;24.20;;;;;;5000409;28;25068;-73
2022/03/11 07:27:22;;;;;;;15.23;8.32;;;6.10;23.90;;;;;;4998972;28;25151;-71
2022/03/11 07:29:48;;;;;;;10.85;7.70;;;6.20;23.50;;;;;;5005266;28;25061;-71
2022/03/11 07:32:16;;;;;;;13.93;8.60;;;6.30;23.60;;;;;;5007928;28;25065;-73
2022/03/11 07:34:42;;;;;;;13.57;8.55;;;6.40;22.80;;;;;;5007454;28;25147;-73
2022/03/11 07:37:11;;;;;;;19.20;9.50;;;6.40;22.60;;;;;;5010143;28;25085;-73
2022/03/11 07:39:40;;;;;;;14.77;8.48;;;6.50;22.80;;;;;;5010376;28;25142;-73
2022/03/11 07:42:06;;;;;;;13.70;7.82;;;6.60;22.00;;;;;;5013195;28;25083;-72
2022/03/11 07:44:33;;;;;;;16.52;9.18;;;6.70;22.00;;;;;;5014645;28;25056;-70
2022/03/11 07:46:59;;;;;;;18.42;8.80;;;6.80;21.60;;;;;;5015584;28;25145;-68
2022/03/11 07:49:24;;;;;;;16.55;9.40;;;7.00;20.80;;;;;;5014966;28;25089;-72
2022/03/11 07:51:50;;;;;;;15.43;8.93;;;7.00;21.20;;;;;;4999852;28;25064;-71
2022/03/11 07:54:16;;;;;;;17.05;9.23;;;7.10;20.70;;;;;;5036979;28;25076;-73
2022/03/11 07:56:41;;;;;;;16.35;9.40;;;7.30;20.10;;;;;;5038069;28;25106;-71
2022/03/11 07:59:07;;;;;;;14.65;8.77;;;7.40;19.70;;;;;;5011412;28;25096;-73
2022/03/11 08:01:33;;;;;;;15.40;8.88;;;7.40;19.70;;;;;;5021035;28;25077;-71
2022/03/11 08:03:59;;;;;;;15.63;9.27;;;7.50;19.30;;;;;;5020750;28;25185;-71
2022/03/11 08:06:24;;;;;;;14.65;9.10;;;7.50;19.40;;;;;;5020613;28;25076;-70
2022/03/11 08:08:50;;;;;;;13.77;8.80;;;7.60;19.40;;;;;;5018746;28;25106;-72
2022/03/11 08:11:16;;;;;;;17.17;8.80;;;7.70;19.50;;;;;;5018783;28;25079;-73
2022/03/11 08:13:42;;;;;;;17.85;9.02;;;7.90;19.50;;;;;;5016254;28;25114;-73
2022/03/11 08:16:08;;;;;;;20.63;9.48;;;8.00;18.50;;;;;;5029879;28;25061;-73
2022/03/11 08:18:34;;;;;;;17.23;10.00;;;8.10;18.70;;;;;;5001262;28;25066;-71
2022/03/11 08:21:01;;;;;;;17.88;9.85;;;8.30;18.30;;;;;;5015610;28;25094;-74
2022/03/11 08:23:27;;;;;;;15.73;10.32;;;8.40;17.90;;;;;;5032146;28;25090;-74
2022/03/11 08:25:53;;;;;;;16.27;9.13;;;8.60;17.30;;;;;;5014595;28;25097;-73
2022/03/11 08:28:21;;;;;;;16.55;10.15;;;8.70;17.10;;;;;;5011870;28;25128;-75
2022/03/11 08:30:47;;;;;;;20.10;9.82;;;8.90;16.80;;;;;;5010100;28;25053;-72
2022/03/11 08:33:13;;;;;;;14.85;8.98;;;9.10;15.90;;;;;;5013175;28;25148;-71
2022/03/11 08:35:39;;;;;;;22.58;9.40;;;9.20;15.60;;;;;;5010141;28;24751;-72
2022/03/11 08:38:06;;;;;;;18.95;9.57;;;9.50;14.50;;;;;;5008226;28;25165;-71
2022/03/11 08:40:35;;;;;;;14.70;9.25;;;9.70;15.00;;;;;;4990493;28;25074;-70
2022/03/11 08:43:01;;;;;;;13.98;9.00;;;9.70;13.30;;;;;;5007103;28;25100;-71
2022/03/11 08:45:26;;;;;;;19.50;9.75;;;9.70;13.70;;;;;;5006643;28;25065;-70
2022/03/11 08:47:53;;;;;;;14.02;8.73;;;9.90;13.50;;;;;;5007253;28;25133;-71
2022/03/11 08:50:20;;;;;;;16.35;9.48;;;9.90;12.00;;;;;;5007449;28;25062;-70
2022/03/11 08:52:46;;;;;;;18.05;8.38;;;10.00;12.40;;;;;;5006310;28;25059;-71
2022/03/11 08:55:12;;;;;;;19.92;9.55;;;10.10;12.50;;;;;;5005529;28;25076;-69
2022/03/11 08:57:39;;;;;;;18.05;9.35;;;10.20;12.70;;;;;;5006309;28;25073;-70
2022/03/11 09:00:08;;;;;;;19.38;10.10;;;10.30;12.30;;;;;;5006564;28;25094;-70
2022/03/11 09:02:37;;;;;;;20.20;9.65;;;10.30;11.90;;;;;;4988987;28;25076;-69
2022/03/11 09:05:04;;;;;;;19.00;9.23;;;10.40;12.70;;;;;;5006723;28;25071;-72
2022/03/11 09:07:30;;;;;;;13.20;8.55;;;10.50;11.90;;;;;;4988302;28;25131;-71
2022/03/11 09:09:56;;;;;;;21.05;9.35;;;10.50;12.10;;;;;;4988437;28;25075;-70
2022/03/11 09:12:22;;;;;;;18.15;9.38;;;10.60;12.50;;;;;;5006764;28;25066;-69
2022/03/11 09:14:47;;;;;;;14.77;9.27;;;10.80;12.30;;;;;;5007227;28;25137;-71
2022/03/11 09:17:13;;;;;;;16.27;9.48;;;10.90;12.10;;;;;;5008114;28;25073;-71
2022/03/11 09:19:38;;;;;;;18.08;9.50;;;11.20;11.90;;;;;;5007186;28;25072;-69
2022/03/11 09:22:05;;;;;;;20.27;9.77;;;11.30;11.60;;;;;;5006556;28;25150;-69
2022/03/11 09:24:31;;;;;;;16.40;9.90;;;11.20;11.30;;;;;;5006280;28;25078;-69
2022/03/11 09:26:58;;;;;;;16.10;8.85;;;11.30;11.60;;;;;;5007598;28;25059;-71
2022/03/11 09:29:28;;;;;;;17.45;9.35;;;11.40;10.80;;;;;;5007185;28;25145;-70
2022/03/11 09:31:54;;;;;;;19.00;10.30;;;11.40;12.20;;;;;;5007198;28;25182;-69
2022/03/11 09:34:20;;;;;;;26.00;10.75;;;11.50;11.40;;;;;;5006869;28;25148;-70
2022/03/11 09:36:45;;;;;;;20.45;9.88;;;11.50;11.60;;;;;;5007405;28;25067;-69
2022/03/11 09:39:11;;;;;;;20.10;9.60;;;11.70;11.60;;;;;;5010536;28;25058;-68
2022/03/11 09:41:37;;;;;;;17.75;10.10;;;12.00;11.50;;;;;;5010986;28;25065;-68
2022/03/11 09:44:02;;;;;;;26.30;9.93;;;12.00;11.20;;;;;;5011696;28;25175;-70
2022/03/11 09:46:29;;;;;;;17.08;9.77;;;11.90;10.90;;;;;;5009765;28;25117;-69
2022/03/11 09:48:55;;;;;;;18.58;9.27;;;12.10;11.10;;;;;;5013162;28;25081;-70
2022/03/11 09:51:20;;;;;;;18.27;10.43;;;12.00;11.40;;;;;;5013312;28;25060;-70
2022/03/11 09:53:46;;;;;;;18.40;9.88;;;12.10;11.10;;;;;;5013734;28;25169;-69
2022/03/11 09:56:12;;;;;;;14.50;9.23;;;12.10;10.20;;;;;;5013715;28;25091;-71
2022/03/11 09:58:37;;;;;;;16.83;9.68;;;12.00;11.50;;;;;;5012313;28;25068;-72
2022/03/11 10:01:05;;;;;;;16.75;10.45;;;12.00;11.30;;;;;;5011795;28;25141;-69
2022/03/11 10:03:31;;;;;;;19.35;9.77;;;12.30;11.20;;;;;;5012233;28;25050;-71
2022/03/11 10:05:57;;;;;;;17.58;8.52;;;12.20;11.40;;;;;;5013397;28;25074;-69
2022/03/11 10:08:40;;;;;;;20.65;9.68;;;12.10;11.30;;;;;;5012659;28;25094;-70
2022/03/11 10:11:23;;;;;;;18.95;9.80;;;12.20;12.10;;;;;;5012405;28;25069;-71
2022/03/11 10:13:51;;;;;;;16.67;9.32;;;12.20;11.70;;;;;;5011395;28;25159;-70
2022/03/11 10:16:24;;;;;;;18.35;10.45;;;12.20;12.20;;;;;;5010640;28;25072;-70
2022/03/11 10:19:10;;;;;;;18.60;10.00;;;12.40;11.70;;;;;;5010885;28;25111;-73
2022/03/11 10:21:47;;;;;;;19.23;10.40;;;12.30;11.50;;;;;;5010184;28;25179;-70
2022/03/11 10:24:16;;;;;;;17.15;10.57;;;12.30;11.60;;;;;;5009653;28;25066;-71
2022/03/11 10:26:46;;;;;;;16.00;9.55;;;12.50;11.20;;;;;;5010904;28;25174;-72
2022/03/11 10:29:17;;;;;;;14.50;9.35;;;12.40;11.10;;;;;;5010659;28;25149;-71
2022/03/11 10:31:45;;;;;;;15.32;9.70;;;12.50;11.80;;;;;;5010914;28;25103;-71
2022/03/11 10:34:19;;;;;;;17.42;9.77;;;12.70;11.70;;;;;;5009940;28;25149;-70
2022/03/11 10:37:06;;;;;;;17.98;9.48;;;13.10;12.30;;;;;;5011737;28;25053;-70
2022/03/11 10:39:41;;;;;;;20.13;10.10;;;13.20;10.50;;;;;;5011609;28;25070;-70
2022/03/11 10:42:12;;;;;;;14.80;9.80;;;13.40;10.40;;;;;;5010533;28;25046;-70
2022/03/11 10:44:40;;;;;;;18.17;10.93;;;13.30;10.40;;;;;;5010013;28;25078;-72
2022/03/11 10:47:35;;;;;;;16.98;9.73;;;13.20;10.30;;;;;;5009160;28;25074;-71
2022/03/11 10:50:07;;;;;;;17.05;10.07;;;13.10;11.10;;;;;;5008822;28;25130;-69
2022/03/11 10:52:37;;;;;;;21.02;9.27;;;13.10;11.10;;;;;;5010253;28;25098;-73
2022/03/11 10:55:18;;;;;;;19.65;9.85;;;13.40;11.00;;;;;;5009748;28;24958;-71
2022/03/11 10:57:44;;;;;;;17.58;9.85;;;13.40;10.50;;;;;;5009931;28;25076;-70
2022/03/11 11:00:26;;;;;;;17.10;10.10;;;13.60;10.30;;;;;;5009894;28;25054;-71
2022/03/11 11:02:54;;;;;;;15.10;9.82;;;13.90;10.40;;;;;;5010033;28;25093;-71
2022/03/11 11:05:20;;;;;;;16.73;9.68;;;14.10;9.80;;;;;;4989737;28;25072;-71
2022/03/11 11:07:47;;;;;;;20.17;9.90;;;14.20;9.90;;;;;;4989588;28;25074;-71
2022/03/11 11:10:15;;;;;;;17.42;9.25;;;14.10;8.70;;;;;;4990534;28;25087;-70
2022/03/11 11:12:41;;;;;;;16.00;10.63;;;14.10;10.00;;;;;;4973494;28;25073;-70
2022/03/11 11:15:08;;;;;;;18.27;9.80;;;14.20;10.00;;;;;;4991506;28;25079;-70
2022/03/11 11:17:37;;;;;;;14.55;10.13;;;14.50;9.20;;;;;;4989833;28;25055;-71
2022/03/11 11:20:04;;;;;;;16.85;10.23;;;14.50;9.00;;;;;;4996993;28;25088;-70
2022/03/11 11:22:31;;;;;;;17.10;8.85;;;14.40;10.20;;;;;;5010096;28;25108;-72
2022/03/11 11:25:01;;;;;;;17.02;10.13;;;14.60;9.50;;;;;;5009208;28;25061;-70
2022/03/11 11:27:29;;;;;;;15.30;10.20;;;14.90;9.30;;;;;;5009660;28;25055;-72
2022/03/11 11:29:57;;;;;;;16.23;9.32;;;14.90;7.60;;;;;;5009761;28;25071;-71
2022/03/11 11:32:23;;;;;;;13.38;9.38;;;14.80;8.20;;;;;;5009757;28;25054;-70
2022/03/11 11:34:48;;;;;;;14.90;9.20;;;14.80;8.80;;;;;;5009198;28;25078;-70
2022/03/11 11:37:39;;;;;;;16.20;9.30;;;15.00;8.40;;;;;;5009117;28;25056;-70
2022/03/11 11:40:19;;;;;;;17.63;10.05;;;15.30;7.70;;;;;;4991468;28;25135;-71
2022/03/11 11:46:13;;;;;;;16.23;9.43;;;15.30;7.80;;;;;;5004965;28;25065;-69
2022/03/11 11:48:42;;;;;;;18.35;10.20;;;15.70;7.10;;;;;;5012151;28;25055;-69
2022/03/11 11:51:13;;;;;;;15.90;9.68;;;15.30;7.30;;;;;;5012395;28;25064;-70
2022/03/11 11:53:49;;;;;;;16.23;10.02;;;15.50;7.40;;;;;;5014382;28;25084;-70
2022/03/11 11:56:45;;;;;;;18.15;9.88;;;15.60;7.20;;;;;;5006345;28;25095;-70
2022/03/11 11:59:17;;;;;;;20.17;9.73;;;15.80;7.20;;;;;;5031411;28;25075;-73
2022/03/11 12:01:53;;;;;;;15.18;9.18;;;15.90;6.70;;;;;;5033545;28;25052;-72
2022/03/11 12:04:23;;;;;;;17.98;10.65;;;16.10;6.20;;;;;;5033787;28;25088;-74
2022/03/11 12:06:57;;;;;;;19.75;10.00;;;16.00;6.10;;;;;;5030689;28;25061;-69
2022/03/11 12:09:55;;;;;;;22.90;10.40;;;16.30;6.90;;;;;;5015659;28;25076;-74
2022/03/11 12:12:20;;;;;;;18.30;10.70;;;16.40;5.60;;;;;;5007805;28;25091;-71
2022/03/11 12:15:04;;;;;;;15.10;9.43;;;16.50;6.40;;;;;;5025692;28;25065;-70
2022/03/11 12:17:36;;;;;;;17.50;10.55;;;16.70;5.30;;;;;;5004328;28;25073;-73
2022/03/11 12:20:20;;;;;;;20.02;9.98;;;16.70;5.20;;;;;;5026909;28;25048;-71
2022/03/11 12:22:53;;;;;;;20.42;9.65;;;16.50;5.30;;;;;;5017437;28;25072;-74
2022/03/11 12:25:23;;;;;;;15.65;10.20;;;16.50;6.00;;;;;;4994854;28;25126;-75
2022/03/11 12:28:17;;;;;;;16.35;10.43;;;16.30;5.20;;;;;;5011436;28;25116;-73
2022/03/11 12:30:49;;;;;;;15.02;10.45;;;16.50;5.40;;;;;;5011172;28;25059;-73
2022/03/11 12:33:32;;;;;;;15.27;9.30;;;16.70;5.30;;;;;;4992278;28;25114;-69
2022/03/11 12:35:58;;;;;;;19.95;10.18;;;16.70;5.70;;;;;;5009385;28;25058;-72
2022/03/11 12:38:26;;;;;;;16.25;10.52;;;16.80;5.20;;;;;;5009246;28;25079;-72
2022/03/11 12:40:52;;;;;;;13.63;9.35;;;16.90;5.40;;;;;;5008328;28;25087;-71
2022/03/11 12:43:21;;;;;;;14.32;10.57;;;16.80;5.30;;;;;;5010180;28;25151;-70
2022/03/11 12:45:49;;;;;;;17.73;10.27;;;16.60;5.60;;;;;;5009799;28;25069;-71